Aérodrome :
LOGIN :

S'inscrire | Disclaimer

   EN    FR    IT 

 










Légende :    VFR   VFR Marginal   IFR   IFR Intensif   IFR Très Intensif
Visi : 
Plafond : 
>= 8 km
>= 3000ft
5 à 8 km
1000 à 3000 ft
1500m à 5 km
500 à 1000 ft
800 à 1500m
200 à 500 ft
< 800m
< 200 ft
Symboles :   Orages  Brouillard  Fortes neiges  Fortes précipitations  Vent > 20 kt
SIGMETs :   Divers  Orages  Givrage  Turbulence  Onde Orograph.  Cendres Volcan.






- Altitude de l'aérodrome : 28 ft
- Code IATA : OLA


ENOL - Ørland

DERNIER METAR :
  • 212150Z 18008KT 9999 -RA FEW015 BKN040 07/01 Q1003

METARs EXPIRÉS :
  • 212050Z 15017KT 9999 BKN045 07/00 Q1004 TEMPO RA
  • 212020Z 14014KT 9999 FEW040 BKN055 07/02 Q1004 NOSIG
  • 211950Z 14016KT 9999 FEW040 BKN055 06/01 Q1005 NOSIG

TAF TAF ENOL
Valide du 21 à 18h jusqu'au 22 à 18h UTC


2118/2218 15012KT 9999 -RA FEW012 BKN025
TEMPO 2122/2203 RA
BECMG 2202/2205 24030G40KT
TEMPO 2207/2214 25040G55KT



MET'MAP, la Météo Aéronautique d'un coup d'oeil ! - Copyright ORBIFLY Décembre 2007 - Disclaimer

ORBIFLY MET'MAP TEAM :

Programmation & Développement : Alexandra Zaïnal
Conception & Développement : Baudouin d'Aumeries
Co-Programmation & Développement : Marc-Olivier Méhu
Soutien technique & logistique : Manuel Goepfert

Contact : metmap@orbifly.com




SOURCES & CREDITS :

   NOAA